createdAt,value
2022-09-21T00:04:21.542Z,0.50
2022-09-21T00:09:25.024Z,0.60
2022-09-21T00:14:28.596Z,0.43
2022-09-21T00:19:36.041Z,0.40
2022-09-21T00:24:39.540Z,0.47
2022-09-21T00:29:42.998Z,0.57
2022-09-21T00:34:47.851Z,0.50
2022-09-21T00:39:51.634Z,0.53
2022-09-21T00:44:55.676Z,0.60
2022-09-21T00:50:03.640Z,0.50
2022-09-21T00:55:13.724Z,0.70
2022-09-21T01:00:17.206Z,0.50
2022-09-21T01:05:22.332Z,0.47
2022-09-21T01:10:27.468Z,0.40
2022-09-21T01:15:40.557Z,0.50
2022-09-21T01:21:17.321Z,0.60
2022-09-21T01:26:32.624Z,0.60
2022-09-21T01:31:40.916Z,0.50
2022-09-21T01:36:48.426Z,0.40
2022-09-21T01:41:53.999Z,0.60
2022-09-21T01:47:00.938Z,0.63
2022-09-21T01:52:09.710Z,0.77
2022-09-21T01:57:18.771Z,0.70
2022-09-21T02:02:31.956Z,0.60
2022-09-21T02:07:36.757Z,0.50
2022-09-21T02:12:40.915Z,0.90
2022-09-21T02:17:56.705Z,0.97
2022-09-21T02:23:07.264Z,0.67
2022-09-21T02:28:20.635Z,0.60
2022-09-21T02:33:32.200Z,0.50
2022-09-21T02:38:42.740Z,0.80
2022-09-21T02:43:51.080Z,0.60
2022-09-21T02:49:00.733Z,0.47
2022-09-21T02:54:07.628Z,0.47
2022-09-21T02:59:11.595Z,0.70
2022-09-21T03:04:18.055Z,0.57
2022-09-21T03:09:24.275Z,0.70
2022-09-21T03:14:27.752Z,1.00
2022-09-21T03:19:32.606Z,0.60
2022-09-21T03:24:48.413Z,0.50
2022-09-21T03:29:52.517Z,0.70
2022-09-21T03:34:57.357Z,0.80
2022-09-21T03:40:00.901Z,0.90
2022-09-21T03:45:04.690Z,0.70
2022-09-21T03:50:10.568Z,0.77
2022-09-21T03:55:14.041Z,0.70
2022-09-21T04:00:17.883Z,0.80
2022-09-21T04:05:23.191Z,0.90
2022-09-21T04:10:32.783Z,0.70
2022-09-21T04:15:36.733Z,0.70
2022-09-21T04:20:42.081Z,0.87
2022-09-21T04:25:46.562Z,0.77
2022-09-21T04:30:53.563Z,1.10
2022-09-21T04:35:59.254Z,0.77
2022-09-21T04:41:03.336Z,0.90
2022-09-21T04:46:08.426Z,0.80
2022-09-21T04:51:14.784Z,0.63
2022-09-21T04:56:18.748Z,0.60
2022-09-21T05:01:22.283Z,0.80
2022-09-21T05:06:27.234Z,0.80
2022-09-21T05:11:30.857Z,0.70
2022-09-21T05:16:34.641Z,0.80
2022-09-21T05:21:39.537Z,0.83
2022-09-21T05:26:43.018Z,0.80
2022-09-21T05:31:49.612Z,0.50
2022-09-21T05:37:02.974Z,0.60
2022-09-21T05:42:07.354Z,0.60
2022-09-21T05:47:24.075Z,0.63
2022-09-21T05:52:39.465Z,0.80
2022-09-21T05:57:52.148Z,1.20
2022-09-21T06:03:15.525Z,0.90
2022-09-21T06:08:23.065Z,0.60
2022-09-21T06:13:26.564Z,0.67
2022-09-21T06:18:30.073Z,0.80
2022-09-21T06:23:35.614Z,1.13
2022-09-21T06:28:39.526Z,1.30
2022-09-21T06:33:47.470Z,1.00
2022-09-21T06:38:53.082Z,1.00
2022-09-21T06:43:57.819Z,0.80
2022-09-21T06:49:01.421Z,0.90
2022-09-21T06:54:06.520Z,0.97
2022-09-21T06:59:10.393Z,0.77
2022-09-21T07:04:13.991Z,0.60
2022-09-21T07:14:44.389Z,0.80
2022-09-21T07:19:47.980Z,0.70
2022-09-21T07:24:52.858Z,0.73
2022-09-21T07:29:56.386Z,0.50
2022-09-21T07:34:59.992Z,0.80
2022-09-21T07:40:06.255Z,0.70
2022-09-21T07:45:11.104Z,0.70
2022-09-21T07:50:15.110Z,0.53
2022-09-21T07:55:20.093Z,0.60
2022-09-21T08:00:23.894Z,0.60
2022-09-21T08:05:27.454Z,0.80
2022-09-21T08:10:32.797Z,0.63
2022-09-21T08:15:51.630Z,0.50
2022-09-21T08:20:56.443Z,0.70
2022-09-21T08:26:02.137Z,0.50
2022-09-21T08:31:08.832Z,0.70
2022-09-21T08:36:12.403Z,0.70
2022-09-21T08:41:19.888Z,0.70
2022-09-21T08:46:26.028Z,0.70
2022-09-21T08:51:34.016Z,0.53
2022-09-21T08:57:01.089Z,0.50
2022-09-21T09:02:14.222Z,0.83
2022-09-21T09:07:34.081Z,0.80
2022-09-21T09:12:50.679Z,1.00
2022-09-21T09:18:02.838Z,0.80
2022-09-21T09:23:13.623Z,0.80
2022-09-21T09:28:31.673Z,0.50
2022-09-21T09:33:47.276Z,0.60
2022-09-21T09:38:57.331Z,0.50
2022-09-21T09:44:16.286Z,0.60
2022-09-21T09:49:31.347Z,0.50
2022-09-21T09:54:36.553Z,0.50
2022-09-21T09:59:48.470Z,0.50
2022-09-21T10:05:03.699Z,0.50
2022-09-21T10:10:28.313Z,1.20
2022-09-21T10:15:33.780Z,0.70
2022-09-21T10:20:37.524Z,0.60
2022-09-21T10:25:43.456Z,0.60
2022-09-21T10:30:48.909Z,0.60
2022-09-21T10:35:53.622Z,0.57
2022-09-21T10:40:57.418Z,0.40
2022-09-21T10:46:02.885Z,0.50
2022-09-21T10:51:06.793Z,0.50
2022-09-21T10:56:19.238Z,0.40
2022-09-21T11:01:28.791Z,0.57
2022-09-21T11:06:38.035Z,0.50
2022-09-21T11:11:50.792Z,0.40
2022-09-21T11:16:59.642Z,0.40
2022-09-21T11:22:09.346Z,0.40
2022-09-21T11:27:18.739Z,0.30
2022-09-21T11:32:37.252Z,0.40
2022-09-21T11:37:51.706Z,0.30
2022-09-21T11:43:09.654Z,0.40
2022-09-21T11:48:24.959Z,0.37
2022-09-21T11:53:54.249Z,0.30
2022-09-21T11:59:14.306Z,0.50
2022-09-21T12:04:36.982Z,0.40
2022-09-21T12:10:12.353Z,0.50
2022-09-21T12:15:24.475Z,0.40
2022-09-21T12:20:37.847Z,0.43
2022-09-21T12:25:45.432Z,0.57
2022-09-21T12:30:56.303Z,0.50
2022-09-21T12:36:12.040Z,0.40
2022-09-21T12:41:19.864Z,0.50
2022-09-21T12:46:26.990Z,0.40
2022-09-21T12:51:35.481Z,0.33
2022-09-21T12:56:46.209Z,0.33
2022-09-21T13:01:57.439Z,0.30
2022-09-21T13:07:36.082Z,0.50
2022-09-21T13:12:44.830Z,0.70
2022-09-21T13:17:59.304Z,0.40
2022-09-21T13:23:05.041Z,0.30
2022-09-21T13:28:24.211Z,0.40
2022-09-21T13:33:33.918Z,0.40
2022-09-21T13:39:04.542Z,0.33
2022-09-21T13:44:21.250Z,0.33
2022-09-21T13:49:30.978Z,0.20
2022-09-21T13:54:47.671Z,0.20
2022-09-21T14:00:10.418Z,0.40
2022-09-21T14:05:27.844Z,0.30
2022-09-21T14:10:36.184Z,0.10
2022-09-21T14:15:41.197Z,0.30
2022-09-21T14:21:09.572Z,0.37
2022-09-21T14:26:34.674Z,0.30
2022-09-21T14:31:39.834Z,0.30
2022-09-21T14:36:49.958Z,0.30
2022-09-21T14:41:57.506Z,0.30
2022-09-21T14:47:30.256Z,0.30
2022-09-21T14:52:46.204Z,0.30
2022-09-21T14:58:21.396Z,0.27
2022-09-21T15:03:45.288Z,0.30
2022-09-21T15:09:19.784Z,0.10
2022-09-21T15:14:35.055Z,0.30
2022-09-21T15:19:38.539Z,0.20
2022-09-21T15:24:50.934Z,0.20
2022-09-21T15:29:57.483Z,0.23
2022-09-21T15:35:02.549Z,0.30
2022-09-21T15:40:09.494Z,0.20
2022-09-21T15:45:18.292Z,0.13
2022-09-21T15:50:23.344Z,0.27
2022-09-21T15:55:27.312Z,0.20
2022-09-21T16:00:35.411Z,0.20
2022-09-21T16:05:47.576Z,0.20
2022-09-21T16:10:51.242Z,0.30
2022-09-21T16:16:07.084Z,0.20
2022-09-21T16:21:20.286Z,0.10
2022-09-21T16:26:26.996Z,0.10
2022-09-21T16:31:34.100Z,0.10
2022-09-21T16:36:46.094Z,0.30
2022-09-21T16:41:58.217Z,0.20
2022-09-21T16:47:04.557Z,0.20
2022-09-21T16:52:08.406Z,0.20
2022-09-21T16:57:14.306Z,0.27
2022-09-21T17:02:19.513Z,0.27
2022-09-21T17:07:23.046Z,0.20
2022-09-21T17:12:28.210Z,0.20
2022-09-21T17:17:33.640Z,0.10
2022-09-21T17:22:37.993Z,0.27
2022-09-21T17:27:42.290Z,0.10
2022-09-21T17:32:47.651Z,0.10
2022-09-21T17:37:51.139Z,0.20
2022-09-21T17:43:11.899Z,0.30
2022-09-21T17:48:20.428Z,0.50
2022-09-21T17:53:37.773Z,0.40
2022-09-21T17:58:46.277Z,0.50
2022-09-21T18:03:51.807Z,0.40
2022-09-21T18:08:56.211Z,0.40
2022-09-21T18:14:09.923Z,0.20
2022-09-21T18:19:36.665Z,0.40
2022-09-21T18:24:41.006Z,0.40
2022-09-21T18:29:45.156Z,0.67
2022-09-21T18:35:14.828Z,0.60
2022-09-21T18:40:25.785Z,0.60
2022-09-21T18:45:34.509Z,0.43
2022-09-21T18:50:46.651Z,0.60
2022-09-21T18:55:52.091Z,0.50
2022-09-21T19:00:56.113Z,0.50
2022-09-21T19:06:30.440Z,0.47
2022-09-21T19:11:40.692Z,0.30
2022-09-21T19:16:55.413Z,0.63
2022-09-21T19:22:07.084Z,0.50
2022-09-21T19:27:22.859Z,0.50
2022-09-21T19:32:37.296Z,0.40
2022-09-21T19:37:42.458Z,0.50
2022-09-21T19:42:56.141Z,0.40
2022-09-21T19:48:04.862Z,0.60
2022-09-21T19:53:28.332Z,0.40
2022-09-21T19:58:55.442Z,0.53
2022-09-21T20:03:59.582Z,0.23
2022-09-21T20:09:11.587Z,0.40
2022-09-21T20:14:23.875Z,0.50
2022-09-21T20:19:37.453Z,0.30
2022-09-21T20:24:49.851Z,0.40
2022-09-21T20:29:53.910Z,0.30
2022-09-21T20:34:57.521Z,0.40
2022-09-21T20:40:02.971Z,0.50
2022-09-21T20:45:09.404Z,0.60
2022-09-21T20:50:13.570Z,0.37
2022-09-21T20:55:20.245Z,0.60
2022-09-21T21:00:23.768Z,0.50
2022-09-21T21:05:29.164Z,0.60
2022-09-21T21:10:34.326Z,0.60
2022-09-21T21:15:38.380Z,0.43
2022-09-21T21:20:41.882Z,0.70
2022-09-21T21:25:46.792Z,0.80
2022-09-21T21:30:53.821Z,0.40
2022-09-21T21:36:03.985Z,0.67
2022-09-21T21:41:08.974Z,0.53
2022-09-21T21:46:12.917Z,0.70
2022-09-21T21:51:16.505Z,0.70
2022-09-21T21:56:23.111Z,0.50
2022-09-21T22:01:29.241Z,0.30
2022-09-21T22:06:35.016Z,0.60
2022-09-21T22:11:40.373Z,0.47
2022-09-21T22:16:43.956Z,0.60
2022-09-21T22:21:53.253Z,0.60
2022-09-21T22:26:58.946Z,0.60
2022-09-21T22:32:03.057Z,0.50
2022-09-21T22:37:06.746Z,0.60
2022-09-21T22:42:13.099Z,0.50
2022-09-21T22:47:16.642Z,0.60
2022-09-21T22:52:20.180Z,0.60
2022-09-21T22:57:25.060Z,0.50
2022-09-21T23:02:28.805Z,0.50
2022-09-21T23:07:32.979Z,0.57
2022-09-21T23:12:38.511Z,0.40
2022-09-21T23:17:42.261Z,0.30
2022-09-21T23:22:45.836Z,0.47
2022-09-21T23:27:50.691Z,0.30
2022-09-21T23:32:54.151Z,0.57
2022-09-21T23:37:57.623Z,0.50
2022-09-21T23:43:02.652Z,0.50
2022-09-21T23:48:06.185Z,0.40
2022-09-21T23:53:09.699Z,0.50
2022-09-21T23:58:15.412Z,0.57
